Time;durP1;ratioP1;P1;durP2;ratioP2;P2;SDS_P1;SDS_P2;PMS_P1;PMS_P2;Temp;Humidity;BMP_temperature;BMP_pressure;BME280_temperature;BME280_humidity;BME280_pressure;Samples;Min_cycle;Max_cycle;Signal;HPM_P1;HPM_P2
2022/08/27 00:00:49;;;;;;;8.95;6.07;;;22.60;99.90;;;;;;5073403;28;20028;-45
2022/08/27 00:03:16;;;;;;;7.07;6.18;;;22.60;99.90;;;;;;5072924;28;20052;-47
2022/08/27 00:05:42;;;;;;;13.55;7.32;;;22.60;99.90;;;;;;5073349;28;20036;-48
2022/08/27 00:08:11;;;;;;;9.77;6.40;;;22.50;99.90;;;;;;5073403;28;20028;-47
2022/08/27 00:10:37;;;;;;;11.02;6.45;;;22.50;99.90;;;;;;5073306;28;20082;-45
2022/08/27 00:13:03;;;;;;;13.98;6.72;;;22.60;99.90;;;;;;5072933;28;20426;-48
2022/08/27 00:15:29;;;;;;;6.88;5.95;;;22.50;99.90;;;;;;5054186;28;20024;-48
2022/08/27 00:17:55;;;;;;;12.90;7.03;;;22.50;99.90;;;;;;5073054;28;20400;-53
2022/08/27 00:20:24;;;;;;;8.80;6.15;;;22.50;99.90;;;;;;5072908;28;20044;-46
2022/08/27 00:22:50;;;;;;;9.18;6.53;;;22.40;99.90;;;;;;5072988;28;20438;-43
2022/08/27 00:25:16;;;;;;;10.52;6.55;;;22.50;99.90;;;;;;5073059;28;20021;-49
2022/08/27 00:27:42;;;;;;;10.55;6.68;;;22.50;99.90;;;;;;5072956;28;20396;-47
2022/08/27 00:30:11;;;;;;;9.32;6.40;;;22.60;99.90;;;;;;5072759;28;20035;-51
2022/08/27 00:32:39;;;;;;;8.60;5.95;;;22.50;99.90;;;;;;5072375;28;20488;-44
2022/08/27 00:35:05;;;;;;;12.65;6.32;;;22.50;99.90;;;;;;5054873;28;20053;-51
2022/08/27 00:37:31;;;;;;;13.13;6.22;;;22.50;99.90;;;;;;5072633;28;20119;-52
2022/08/27 00:39:57;;;;;;;9.55;6.60;;;22.50;99.90;;;;;;5072581;28;20032;-47
2022/08/27 00:42:22;;;;;;;8.45;6.45;;;22.50;99.90;;;;;;5053804;28;20519;-51
2022/08/27 00:44:48;;;;;;;7.13;5.57;;;22.50;99.90;;;;;;5054666;28;20102;-42
2022/08/27 00:47:19;;;;;;;11.77;6.85;;;22.50;99.90;;;;;;5054582;28;20027;-48
2022/08/27 00:49:49;;;;;;;11.30;8.20;;;22.50;99.90;;;;;;5072381;28;20017;-52
2022/08/27 00:52:25;;;;;;;10.27;6.38;;;22.50;99.90;;;;;;5054125;28;20488;-50
2022/08/27 00:54:57;;;;;;;8.30;6.07;;;22.50;99.90;;;;;;5072332;28;20032;-50
2022/08/27 00:57:23;;;;;;;11.65;6.22;;;22.50;99.90;;;;;;5072465;28;20108;-42
2022/08/27 00:59:48;;;;;;;47.72;35.42;;;22.50;99.90;;;;;;5072231;28;20024;-45
2022/08/27 01:02:20;;;;;;;12.55;8.43;;;22.50;99.90;;;;;;5071790;28;20039;-48
2022/08/27 01:04:50;;;;;;;12.57;6.72;;;22.50;99.90;;;;;;5072245;28;20054;-50
2022/08/27 01:07:16;;;;;;;11.38;6.07;;;22.50;99.90;;;;;;5072338;28;20090;-47
2022/08/27 01:09:42;;;;;;;11.77;6.70;;;22.40;99.90;;;;;;5071917;28;20438;-44
2022/08/27 01:12:10;;;;;;;12.57;6.88;;;22.40;99.90;;;;;;5071738;28;20021;-45
2022/08/27 01:14:36;;;;;;;15.68;6.93;;;22.30;99.90;;;;;;5072196;28;20514;-46
2022/08/27 01:17:05;;;;;;;17.30;6.88;;;22.30;99.90;;;;;;5072211;28;20028;-48
2022/08/27 01:19:37;;;;;;;12.43;6.05;;;22.30;99.90;;;;;;5072155;28;20021;-48
2022/08/27 01:22:31;;;;;;;9.15;6.30;;;22.20;99.90;;;;;;5071430;28;20439;-46
2022/08/27 01:25:06;;;;;;;16.15;7.30;;;22.20;99.90;;;;;;5071933;28;20020;-48
2022/08/27 01:27:33;;;;;;;;;;;22.20;99.90;;;;;;5072185;28;20406;-44
2022/08/27 01:29:59;;;;;;;13.73;7.25;;;22.20;99.90;;;;;;5071681;28;19935;-48
2022/08/27 01:32:29;;;;;;;12.43;6.68;;;22.20;99.90;;;;;;5071418;28;20024;-53
2022/08/27 01:34:56;;;;;;;16.00;7.43;;;22.20;99.90;;;;;;5071720;28;20016;-50
2022/08/27 01:37:24;;;;;;;14.07;6.65;;;22.20;99.90;;;;;;5071697;28;20040;-47
2022/08/27 01:39:50;;;;;;;10.70;6.18;;;22.30;99.90;;;;;;5071677;28;20021;-42
2022/08/27 01:42:20;;;;;;;12.57;6.50;;;22.20;99.90;;;;;;5070605;28;20124;-50
2022/08/27 01:44:50;;;;;;;11.13;6.30;;;22.20;99.90;;;;;;5071666;28;20442;-48
2022/08/27 01:47:18;;;;;;;9.25;6.20;;;22.10;99.90;;;;;;5053624;28;20024;-52
2022/08/27 01:49:44;;;;;;;10.55;6.70;;;22.10;99.90;;;;;;5071423;28;20484;-45
2022/08/27 01:52:09;;;;;;;7.60;6.00;;;22.10;99.90;;;;;;5053276;28;20048;-45
2022/08/27 01:54:35;;;;;;;10.25;6.45;;;22.20;99.90;;;;;;5071509;28;20032;-44
2022/08/27 01:57:00;;;;;;;9.05;6.38;;;22.10;99.90;;;;;;5071326;28;20048;-46
2022/08/27 01:59:26;;;;;;;9.52;6.13;;;22.10;99.90;;;;;;5071574;28;20033;-51
2022/08/27 02:01:54;;;;;;;7.50;6.18;;;22.10;99.90;;;;;;5071145;28;20021;-44
2022/08/27 02:04:21;;;;;;;11.98;6.35;;;22.10;99.90;;;;;;5071553;28;20419;-46
2022/08/27 02:06:46;;;;;;;8.70;6.30;;;22.00;99.90;;;;;;5071614;28;20055;-51
2022/08/27 02:09:12;;;;;;;7.03;6.22;;;22.00;99.90;;;;;;5071625;28;20052;-48
2022/08/27 02:11:37;;;;;;;11.77;7.25;;;22.00;99.90;;;;;;5071316;28;20111;-42
2022/08/27 02:14:03;;;;;;;6.85;5.35;;;22.00;99.90;;;;;;5053065;28;20472;-47
2022/08/27 02:16:31;;;;;;;11.20;6.28;;;22.00;99.90;;;;;;5071355;28;20025;-51
2022/08/27 02:18:57;;;;;;;11.95;5.90;;;22.00;99.90;;;;;;5071388;28;20078;-47
2022/08/27 02:21:22;;;;;;;12.25;7.40;;;21.90;99.90;;;;;;5071436;28;20024;-47
2022/08/27 02:23:48;;;;;;;54.58;38.97;;;22.00;99.90;;;;;;5070943;28;20081;-50
2022/08/27 02:26:13;;;;;;;20.83;10.57;;;21.90;99.90;;;;;;5071128;28;20116;-50
2022/08/27 02:28:39;;;;;;;14.77;9.73;;;22.00;99.90;;;;;;5071326;28;20099;-49
2022/08/27 02:31:04;;;;;;;8.18;6.00;;;21.90;99.90;;;;;;5070870;28;20028;-47
2022/08/27 02:33:32;;;;;;;9.52;5.93;;;22.00;99.90;;;;;;5070766;28;20032;-49
2022/08/27 02:35:58;;;;;;;10.90;5.97;;;21.90;99.90;;;;;;5071216;28;20055;-48
2022/08/27 02:38:24;;;;;;;10.35;7.38;;;21.80;99.90;;;;;;5071674;28;20323;-43
2022/08/27 02:40:49;;;;;;;13.20;6.80;;;21.80;99.90;;;;;;5074554;28;20021;-49
2022/08/27 02:43:15;;;;;;;11.38;6.68;;;21.80;99.90;;;;;;5074462;28;20031;-49
2022/08/27 02:45:41;;;;;;;11.35;7.28;;;21.80;99.90;;;;;;5075013;28;20025;-49
2022/08/27 02:48:07;;;;;;;9.75;6.53;;;21.80;99.90;;;;;;5074696;28;20391;-48
2022/08/27 02:50:32;;;;;;;10.77;6.57;;;21.80;99.90;;;;;;5074634;28;20507;-42
2022/08/27 02:53:01;;;;;;;9.73;6.80;;;21.80;99.90;;;;;;5074280;28;20078;-47
2022/08/27 02:55:27;;;;;;;16.77;7.80;;;21.80;99.90;;;;;;5074680;28;20082;-49
2022/08/27 02:57:52;;;;;;;13.88;6.70;;;21.80;99.90;;;;;;5074664;28;20024;-42
2022/08/27 03:00:21;;;;;;;17.65;7.75;;;21.70;99.90;;;;;;5074562;28;20028;-44
2022/08/27 03:02:47;;;;;;;8.77;7.15;;;21.70;99.90;;;;;;5074106;28;20487;-45
2022/08/27 03:05:13;;;;;;;14.25;7.10;;;21.70;99.90;;;;;;5074662;28;20025;-49
2022/08/27 03:07:40;;;;;;;13.02;7.85;;;21.70;99.90;;;;;;5074438;28;20028;-48
2022/08/27 03:10:08;;;;;;;13.88;7.50;;;21.70;99.90;;;;;;5074408;28;20021;-45
2022/08/27 03:12:35;;;;;;;13.52;7.22;;;21.70;99.90;;;;;;5074029;28;20032;-44
2022/08/27 03:15:07;;;;;;;12.00;8.23;;;21.60;99.90;;;;;;5074391;28;20556;-51
2022/08/27 03:20:17;;;;;;;11.82;6.95;;;21.50;99.90;;;;;;5074276;28;20040;-47
2022/08/27 03:22:43;;;;;;;11.40;7.25;;;21.50;99.90;;;;;;5073793;28;20108;-43
2022/08/27 03:25:09;;;;;;;15.75;8.00;;;21.40;99.90;;;;;;5074294;28;20114;-48
2022/08/27 03:27:35;;;;;;;14.68;7.32;;;21.40;99.90;;;;;;5074294;28;20457;-47
2022/08/27 03:30:07;;;;;;;9.43;7.30;;;21.40;99.90;;;;;;5073840;28;20078;-48
2022/08/27 03:32:34;;;;;;;11.82;7.68;;;21.40;99.90;;;;;;5055446;28;20036;-50
2022/08/27 03:34:59;;;;;;;10.77;7.68;;;21.40;99.90;;;;;;5074027;28;20029;-49
2022/08/27 03:37:25;;;;;;;14.20;7.43;;;21.40;99.90;;;;;;5073917;28;20108;-54
2022/08/27 03:39:50;;;;;;;7.97;5.88;;;21.40;99.90;;;;;;5073851;28;20036;-47
2022/08/27 03:42:16;;;;;;;14.15;6.88;;;21.50;99.90;;;;;;5072970;28;20025;-47
2022/08/27 03:44:41;;;;;;;13.00;7.35;;;21.40;99.90;;;;;;5073791;28;20056;-49
2022/08/27 03:47:07;;;;;;;11.20;7.65;;;21.40;99.90;;;;;;5073773;28;20017;-43
2022/08/27 03:49:32;;;;;;;12.00;7.18;;;21.40;99.90;;;;;;5073628;28;20020;-43
2022/08/27 03:51:58;;;;;;;13.35;7.97;;;21.40;99.90;;;;;;5073643;28;20495;-49
2022/08/27 03:54:24;;;;;;;12.68;7.63;;;21.50;99.90;;;;;;5073613;28;20040;-52
2022/08/27 03:56:50;;;;;;;17.35;9.10;;;21.50;99.90;;;;;;5073692;28;20454;-47
2022/08/27 03:59:15;;;;;;;17.10;8.98;;;21.50;99.90;;;;;;5073572;28;20059;-47
2022/08/27 04:01:42;;;;;;;22.20;8.63;;;21.50;99.90;;;;;;5073813;28;20028;-48
2022/08/27 04:04:08;;;;;;;14.00;7.63;;;21.40;99.90;;;;;;5073255;28;20039;-51
2022/08/27 04:06:34;;;;;;;18.08;9.25;;;21.40;99.90;;;;;;5073492;28;20450;-51
2022/08/27 04:09:00;;;;;;;15.90;8.98;;;21.40;99.90;;;;;;5055401;28;20078;-49
2022/08/27 04:11:28;;;;;;;10.98;7.65;;;21.40;99.90;;;;;;5073214;28;20024;-48
2022/08/27 04:13:54;;;;;;;13.88;8.60;;;21.40;99.90;;;;;;5073198;28;20017;-46
2022/08/27 04:16:19;;;;;;;14.43;8.52;;;21.40;99.90;;;;;;5073212;28;20392;-50
2022/08/27 04:18:44;;;;;;;14.63;8.35;;;21.40;99.90;;;;;;5073126;28;20029;-47
2022/08/27 04:21:12;;;;;;;15.95;8.18;;;21.40;99.90;;;;;;5073159;28;20472;-49
2022/08/27 04:23:39;;;;;;;17.40;8.80;;;21.30;99.90;;;;;;5072811;28;20411;-43
2022/08/27 04:26:06;;;;;;;15.00;8.73;;;21.30;99.90;;;;;;5073086;28;20032;-47
2022/08/27 04:28:32;;;;;;;15.25;8.60;;;21.30;99.90;;;;;;5073022;28;20021;-47
2022/08/27 04:30:58;;;;;;;17.15;9.35;;;21.30;99.90;;;;;;5072564;28;20035;-41
2022/08/27 04:33:23;;;;;;;13.95;8.52;;;21.40;99.90;;;;;;5072554;28;20113;-44
2022/08/27 04:35:57;;;;;;;25.55;9.02;;;21.30;99.90;;;;;;5072991;28;20027;-44
2022/08/27 04:38:23;;;;;;;17.52;7.60;;;21.40;99.90;;;;;;5072992;28;20025;-48
2022/08/27 04:43:32;;;;;;;14.65;10.07;;;21.40;99.90;;;;;;5072257;28;20039;-49
2022/08/27 04:45:58;;;;;;;17.25;8.32;;;21.30;99.90;;;;;;5072745;28;20396;-42
2022/08/27 04:48:24;;;;;;;21.77;9.20;;;21.30;99.90;;;;;;5072801;28;20059;-42
2022/08/27 04:50:50;;;;;;;15.13;9.15;;;21.40;99.90;;;;;;5072556;28;20019;-45
2022/08/27 04:53:16;;;;;;;11.63;8.15;;;21.40;99.90;;;;;;5072526;28;20036;-45
2022/08/27 04:55:47;;;;;;;13.00;8.50;;;21.40;99.90;;;;;;5072791;28;20020;-46
2022/08/27 04:58:13;;;;;;;18.20;8.52;;;21.40;99.90;;;;;;5072702;28;20024;-51
2022/08/27 05:00:45;;;;;;;17.00;8.48;;;21.40;99.90;;;;;;5072373;28;20025;-49
2022/08/27 05:03:11;;;;;;;13.82;8.10;;;21.40;99.90;;;;;;5071909;28;20115;-46
2022/08/27 05:05:37;;;;;;;12.45;7.65;;;21.40;99.90;;;;;;5072509;28;20124;-46
2022/08/27 05:08:03;;;;;;;10.48;7.88;;;21.40;99.90;;;;;;5072327;28;20499;-46
2022/08/27 05:10:29;;;;;;;18.67;9.63;;;21.40;99.90;;;;;;5072149;28;20020;-45
2022/08/27 05:12:54;;;;;;;13.52;7.57;;;21.40;99.90;;;;;;5071853;28;20503;-45
2022/08/27 05:15:20;;;;;;;14.07;8.15;;;21.50;99.90;;;;;;5072175;28;20037;-49
2022/08/27 05:17:46;;;;;;;13.73;8.25;;;21.50;99.90;;;;;;5072014;28;20028;-48
2022/08/27 05:20:11;;;;;;;17.15;7.95;;;21.50;99.90;;;;;;5072405;28;20026;-44
2022/08/27 05:22:38;;;;;;;15.27;8.18;;;21.50;99.90;;;;;;5071632;28;20086;-45
2022/08/27 05:25:05;;;;;;;16.02;8.10;;;21.60;99.90;;;;;;5072160;28;20016;-45
2022/08/27 05:27:30;;;;;;;12.95;8.35;;;21.60;99.90;;;;;;5072305;28;20546;-48
2022/08/27 05:32:24;;;;;;;11.27;9.07;;;21.60;99.90;;;;;;5088287;22;20092;-50
2022/08/27 05:34:49;;;;;;;10.95;7.35;;;21.60;99.90;;;;;;5071733;28;20024;-45
2022/08/27 05:37:15;;;;;;;12.77;6.90;;;21.50;99.90;;;;;;5071648;28;20027;-48
2022/08/27 05:39:40;;;;;;;15.63;9.10;;;21.50;99.90;;;;;;5071628;28;20082;-47
2022/08/27 05:42:06;;;;;;;12.30;8.15;;;21.60;99.90;;;;;;5070707;28;20033;-47
2022/08/27 05:44:31;;;;;;;10.65;7.10;;;21.60;99.90;;;;;;5071533;28;20054;-48
2022/08/27 05:46:57;;;;;;;12.35;8.32;;;21.60;99.90;;;;;;5071533;28;20021;-48
2022/08/27 05:49:23;;;;;;;14.32;7.63;;;21.50;99.90;;;;;;5053855;28;20028;-52
2022/08/27 05:51:48;;;;;;;16.10;7.95;;;21.50;99.90;;;;;;5071691;28;20020;-48
2022/08/27 05:54:18;;;;;;;10.50;7.68;;;21.50;99.90;;;;;;5071479;28;20058;-51
2022/08/27 05:56:43;;;;;;;18.05;9.32;;;21.50;99.90;;;;;;5071466;28;20388;-51
2022/08/27 06:01:55;;;;;;;12.23;8.32;;;21.40;99.90;;;;;;5071297;28;20070;-46
2022/08/27 06:04:22;;;;;;;12.00;7.18;;;21.40;99.90;;;;;;5053250;28;20029;-50
2022/08/27 06:06:49;;;;;;;10.45;7.32;;;21.40;99.90;;;;;;5071784;28;20032;-51
2022/08/27 06:09:20;;;;;;;19.55;7.78;;;21.40;99.90;;;;;;5071308;28;20029;-54
2022/08/27 06:11:47;;;;;;;9.60;7.45;;;21.40;99.90;;;;;;5071215;28;20025;-50
2022/08/27 06:14:12;;;;;;;14.68;7.90;;;21.50;99.90;;;;;;5073267;28;20372;-49
2022/08/27 06:16:39;;;;;;;13.45;7.53;;;21.50;99.90;;;;;;5075407;28;20032;-49
2022/08/27 06:19:05;;;;;;;11.07;7.22;;;21.50;99.90;;;;;;5071504;28;20020;-49
2022/08/27 06:21:32;;;;;;;15.07;7.38;;;21.60;99.90;;;;;;5060973;28;20022;-52
2022/08/27 06:23:57;;;;;;;13.88;8.57;;;21.60;99.90;;;;;;5056461;28;20025;-48
2022/08/27 06:26:25;;;;;;;13.73;7.40;;;21.70;99.90;;;;;;5074385;28;20024;-53
2022/08/27 06:28:51;;;;;;;10.35;7.22;;;21.70;99.90;;;;;;5070830;28;20032;-47
2022/08/27 06:31:21;;;;;;;11.45;7.43;;;21.80;99.90;;;;;;5074398;28;20050;-47
2022/08/27 06:33:47;;;;;;;20.25;8.25;;;21.70;99.90;;;;;;5067886;28;20068;-46
2022/08/27 06:36:15;;;;;;;12.05;7.05;;;21.70;99.90;;;;;;5063367;28;20033;-46
2022/08/27 06:38:42;;;;;;;15.98;8.63;;;21.60;99.90;;;;;;5061126;28;20435;-50
2022/08/27 06:41:09;;;;;;;10.18;6.55;;;21.50;99.90;;;;;;5053113;28;20032;-47
2022/08/27 06:43:37;;;;;;;11.13;7.20;;;21.50;99.90;;;;;;5054972;28;20025;-46
2022/08/27 06:46:05;;;;;;;12.88;7.22;;;21.50;99.90;;;;;;5065572;28;20048;-44
2022/08/27 06:48:31;;;;;;;9.98;6.63;;;21.60;99.90;;;;;;5065678;28;20543;-49
2022/08/27 06:50:57;;;;;;;13.07;7.28;;;21.60;99.90;;;;;;5055063;28;20071;-50
2022/08/27 06:53:22;;;;;;;11.45;7.32;;;21.60;99.90;;;;;;5057047;28;20032;-50
2022/08/27 06:55:48;;;;;;;9.23;7.22;;;21.60;99.90;;;;;;5074065;28;20565;-44
2022/08/27 06:58:15;;;;;;;15.20;7.68;;;21.60;99.90;;;;;;5056876;28;20499;-45
2022/08/27 07:00:42;;;;;;;11.95;7.57;;;21.60;99.90;;;;;;5058102;28;20351;-52
2022/08/27 07:03:08;;;;;;;14.52;8.02;;;21.50;99.90;;;;;;5073808;28;20021;-50
2022/08/27 07:05:36;;;;;;;15.15;8.40;;;21.50;99.90;;;;;;5074636;28;20043;-48
2022/08/27 07:08:02;;;;;;;9.18;7.35;;;21.50;99.90;;;;;;5074356;28;20033;-49
2022/08/27 07:10:29;;;;;;;11.65;8.02;;;21.50;99.90;;;;;;5056129;28;20107;-49
2022/08/27 07:12:54;;;;;;;14.57;8.07;;;21.50;99.90;;;;;;5074008;28;20039;-49
2022/08/27 07:15:20;;;;;;;12.85;7.97;;;21.50;99.90;;;;;;5074011;28;20028;-48
2022/08/27 07:17:46;;;;;;;14.73;7.72;;;21.50;99.90;;;;;;5074162;28;20032;-48
2022/08/27 07:20:13;;;;;;;13.13;7.55;;;21.50;99.90;;;;;;5074142;28;20106;-48
2022/08/27 07:22:41;;;;;;;12.15;7.07;;;21.50;99.90;;;;;;5055839;28;20032;-47
2022/08/27 07:25:11;;;;;;;9.43;7.13;;;21.50;99.90;;;;;;5073574;28;20392;-49
2022/08/27 07:27:37;;;;;;;10.75;6.85;;;21.50;99.90;;;;;;5074115;28;20032;-53
2022/08/27 07:30:04;;;;;;;10.05;7.10;;;21.60;99.90;;;;;;5073868;28;20036;-55
2022/08/27 07:32:30;;;;;;;12.73;7.72;;;21.70;99.90;;;;;;5073463;28;20036;-47
2022/08/27 07:34:55;;;;;;;13.68;7.03;;;21.80;99.90;;;;;;5074130;28;20115;-49
2022/08/27 07:37:21;;;;;;;15.52;7.32;;;21.80;99.90;;;;;;5074204;28;20024;-51
2022/08/27 07:39:47;;;;;;;16.00;7.80;;;21.90;99.90;;;;;;5073924;28;20069;-51
2022/08/27 07:44:56;;;;;;;11.50;7.13;;;22.00;99.90;;;;;;5074111;28;20043;-46
2022/08/27 07:47:22;;;;;;;9.32;6.88;;;22.10;99.90;;;;;;5073941;28;20471;-55
2022/08/27 07:49:48;;;;;;;10.55;6.85;;;22.20;99.90;;;;;;5055920;28;20017;-50
2022/08/27 07:52:14;;;;;;;17.02;7.13;;;22.20;99.90;;;;;;5073613;28;20098;-49
2022/08/27 07:54:41;;;;;;;9.30;6.18;;;22.30;99.90;;;;;;5073865;28;20021;-49
2022/08/27 07:57:07;;;;;;;11.13;6.43;;;22.30;99.90;;;;;;5055834;28;20070;-55
2022/08/27 07:59:33;;;;;;;10.60;6.10;;;22.30;99.90;;;;;;5073716;28;20031;-53
2022/08/27 08:01:59;;;;;;;10.23;6.75;;;22.40;99.90;;;;;;5073428;28;20021;-51
2022/08/27 08:04:25;;;;;;;12.18;6.55;;;22.40;99.90;;;;;;5055545;28;20150;-50
2022/08/27 08:06:51;;;;;;;9.23;6.32;;;22.50;99.90;;;;;;5073734;28;20013;-47
2022/08/27 08:09:17;;;;;;;12.20;6.72;;;22.50;99.90;;;;;;5073429;28;20162;-47
2022/08/27 08:11:43;;;;;;;11.05;6.80;;;22.70;99.90;;;;;;5073065;28;20028;-48
2022/08/27 08:14:08;;;;;;;8.20;5.93;;;22.80;99.90;;;;;;5072370;28;20016;-52
2022/08/27 08:16:34;;;;;;;10.95;6.22;;;23.10;99.90;;;;;;5055354;28;20115;-49
2022/08/27 08:19:00;;;;;;;13.70;6.75;;;23.30;99.90;;;;;;5055228;28;20025;-51
2022/08/27 08:21:25;;;;;;;10.57;6.47;;;23.50;99.90;;;;;;5073536;28;20525;-53
2022/08/27 08:23:51;;;;;;;10.73;6.00;;;23.60;99.90;;;;;;5072675;28;20031;-53
2022/08/27 08:26:16;;;;;;;8.25;6.03;;;23.70;99.90;;;;;;5072999;28;20032;-45
2022/08/27 08:28:42;;;;;;;6.28;5.68;;;23.90;99.90;;;;;;5073261;28;20021;-48
2022/08/27 08:31:08;;;;;;;10.10;6.22;;;24.10;99.90;;;;;;5072913;28;20504;-49
2022/08/27 08:33:34;;;;;;;10.25;6.80;;;24.20;99.90;;;;;;5054564;28;20436;-53
2022/08/27 08:36:09;;;;;;;8.82;5.80;;;24.60;99.90;;;;;;5072099;28;20036;-52
2022/08/27 08:38:36;;;;;;;8.55;5.32;;;25.00;99.90;;;;;;5072639;28;20029;-51
2022/08/27 08:41:03;;;;;;;8.15;4.78;;;25.80;99.90;;;;;;5072625;28;20573;-54
2022/08/27 08:43:36;;;;;;;9.80;5.63;;;26.80;99.90;;;;;;5072223;28;20029;-52
2022/08/27 08:46:11;;;;;;;8.30;5.00;;;27.30;98.60;;;;;;5054699;28;20488;-53
2022/08/27 08:48:41;;;;;;;8.98;5.07;;;27.70;98.20;;;;;;5054711;28;20032;-50
2022/08/27 08:51:33;;;;;;;6.47;5.05;;;27.70;97.80;;;;;;5072351;28;20024;-53
2022/08/27 08:54:06;;;;;;;9.18;5.47;;;26.90;98.30;;;;;;5072244;28;20058;-48
2022/08/27 08:56:40;;;;;;;12.13;5.75;;;26.50;99.00;;;;;;5071895;28;20132;-50
2022/08/27 08:59:17;;;;;;;7.03;5.00;;;26.20;99.20;;;;;;5066176;28;20039;-48
2022/08/27 09:01:44;;;;;;;7.88;5.10;;;26.00;99.70;;;;;;5072090;28;20069;-51
2022/08/27 09:04:10;;;;;;;10.38;5.43;;;26.00;99.90;;;;;;5071837;28;20112;-52
2022/08/27 09:06:46;;;;;;;8.27;4.82;;;26.00;99.90;;;;;;5071390;28;20067;-53
2022/08/27 09:09:29;;;;;;;7.03;5.00;;;26.10;99.80;;;;;;5063332;28;20090;-46
2022/08/27 09:12:18;;;;;;;6.03;4.78;;;26.00;99.50;;;;;;5051956;28;20107;-48
2022/08/27 09:14:50;;;;;;;7.50;5.28;;;25.50;99.30;;;;;;5070375;28;20048;-53
2022/08/27 09:17:16;;;;;;;6.60;5.03;;;25.40;99.70;;;;;;5071990;28;20048;-51
2022/08/27 09:19:42;;;;;;;6.32;4.20;;;25.40;99.90;;;;;;5071482;28;20067;-53
2022/08/27 09:22:30;;;;;;;10.45;5.57;;;25.40;99.90;;;;;;5048209;28;20119;-50
2022/08/27 09:25:08;;;;;;;10.02;5.25;;;25.40;99.90;;;;;;5070656;28;20029;-52
2022/08/27 09:27:38;;;;;;;10.63;5.20;;;25.30;99.90;;;;;;5052776;28;20045;-47
2022/08/27 09:30:08;;;;;;;11.57;5.22;;;25.10;99.90;;;;;;5069188;28;20095;-49
2022/08/27 09:32:33;;;;;;;6.68;5.72;;;24.80;99.90;;;;;;5053275;28;20048;-48
2022/08/27 09:35:03;;;;;;;6.50;5.15;;;24.80;99.90;;;;;;5071852;28;20082;-46
2022/08/27 09:37:31;;;;;;;9.65;4.38;;;24.70;99.90;;;;;;5071343;28;20490;-49
2022/08/27 09:40:38;;;;;;;8.55;4.95;;;24.80;99.90;;;;;;5071765;28;20040;-48
2022/08/27 09:43:16;;;;;;;8.48;5.10;;;24.70;99.90;;;;;;5006408;28;20029;-47
2022/08/27 09:45:51;;;;;;;5.70;5.18;;;24.50;99.90;;;;;;5059898;28;20068;-54
2022/08/27 09:48:29;;;;;;;8.50;4.53;;;24.40;99.90;;;;;;5071132;28;20031;-48
2022/08/27 09:50:59;;;;;;;6.45;4.35;;;24.30;99.90;;;;;;5070376;28;20502;-53
2022/08/27 09:53:34;;;;;;;6.30;5.53;;;24.20;99.90;;;;;;5069897;28;20040;-48
2022/08/27 09:56:02;;;;;;;17.02;13.77;;;24.20;99.90;;;;;;5033584;28;20048;-48
2022/08/27 09:58:52;;;;;;;6.40;5.43;;;24.20;99.90;;;;;;5058129;28;20039;-53
2022/08/27 10:01:22;;;;;;;8.52;4.72;;;24.40;99.90;;;;;;5066896;28;20040;-50
2022/08/27 10:03:48;;;;;;;8.75;5.43;;;24.60;99.90;;;;;;5051183;28;20393;-50
2022/08/27 10:06:26;;;;;;;6.25;4.97;;;24.60;99.90;;;;;;5042172;28;20024;-54
2022/08/27 10:08:56;;;;;;;6.45;4.90;;;24.70;99.90;;;;;;5052093;28;20016;-48
2022/08/27 10:11:31;;;;;;;9.73;5.13;;;24.80;99.90;;;;;;5069390;28;20025;-50
2022/08/27 10:14:01;;;;;;;11.15;5.00;;;24.90;99.90;;;;;;5070348;28;20035;-55
2022/08/27 10:16:58;;;;;;;5.40;4.60;;;24.90;99.90;;;;;;5053092;28;20093;-47
2022/08/27 10:19:33;;;;;;;6.03;4.50;;;24.80;99.90;;;;;;5054408;28;20104;-46
2022/08/27 10:22:22;;;;;;;7.22;4.90;;;24.80;99.90;;;;;;5050944;28;20524;-51
2022/08/27 10:25:00;;;;;;;7.20;4.75;;;24.80;99.90;;;;;;5044872;28;20025;-53
2022/08/27 10:27:52;;;;;;;11.85;4.55;;;24.60;99.90;;;;;;5052734;28;20035;-50
2022/08/27 10:30:46;;;;;;;7.05;4.85;;;24.60;99.90;;;;;;5051302;28;20025;-48
2022/08/27 10:33:19;;;;;;;8.32;5.00;;;24.60;99.90;;;;;;5023001;28;20097;-47
2022/08/27 10:35:48;;;;;;;5.55;4.43;;;24.60;99.90;;;;;;5051799;28;20032;-46
2022/08/27 10:38:29;;;;;;;8.88;4.70;;;24.60;99.90;;;;;;5034476;28;20021;-52
2022/08/27 10:41:04;;;;;;;5.38;4.65;;;24.60;99.90;;;;;;5060005;28;20024;-52
2022/08/27 10:43:43;;;;;;;;;;;24.80;99.90;;;;;;5071414;28;20504;-47
2022/08/27 10:46:31;;;;;;;7.35;4.50;;;24.80;99.90;;;;;;5052086;28;20394;-49
2022/08/27 10:49:21;;;;;;;5.05;4.47;;;24.70;99.90;;;;;;5051626;28;20033;-51
2022/08/27 10:52:12;;;;;;;6.90;4.95;;;24.40;99.90;;;;;;5065312;28;20476;-50
2022/08/27 10:54:54;;;;;;;6.63;3.88;;;24.30;99.90;;;;;;5061982;28;20060;-49
2022/08/27 10:57:33;;;;;;;6.13;4.82;;;24.30;99.90;;;;;;5070960;28;20042;-49
2022/08/27 11:00:11;;;;;;;5.75;4.70;;;24.30;99.90;;;;;;5049508;28;20078;-51
2022/08/27 11:03:00;;;;;;;5.57;5.05;;;24.50;99.90;;;;;;5068051;28;20063;-51
2022/08/27 11:05:35;;;;;;;15.48;11.98;;;24.40;99.90;;;;;;5073596;28;20029;-50
2022/08/27 11:08:10;;;;;;;5.35;4.85;;;24.40;99.90;;;;;;5066568;28;20017;-47
2022/08/27 11:10:38;;;;;;;5.07;4.65;;;24.60;99.90;;;;;;5073626;28;20119;-50
2022/08/27 11:13:34;;;;;;;6.68;4.07;;;24.70;99.90;;;;;;5073581;28;20036;-49
2022/08/27 11:16:12;;;;;;;6.70;4.53;;;24.80;99.90;;;;;;5063486;28;20037;-50
2022/08/27 11:18:46;;;;;;;7.82;4.50;;;24.90;99.90;;;;;;5073380;28;20090;-46
2022/08/27 11:21:25;;;;;;;4.55;4.15;;;25.10;99.90;;;;;;5058295;28;20491;-49
2022/08/27 11:24:18;;;;;;;8.02;6.10;;;25.20;99.90;;;;;;5055424;28;20552;-51
2022/08/27 11:26:45;;;;;;;5.05;4.55;;;25.40;99.90;;;;;;5065677;28;20027;-53
2022/08/27 11:29:33;;;;;;;5.93;4.40;;;25.50;99.20;;;;;;5065121;28;20056;-53
2022/08/27 11:32:23;;;;;;;4.47;3.67;;;25.50;99.40;;;;;;5088584;22;20379;-49
2022/08/27 11:34:58;;;;;;;7.30;4.78;;;25.50;99.30;;;;;;5032454;28;20519;-52
2022/08/27 11:37:36;;;;;;;;;;;25.40;99.90;;;;;;5034070;28;20018;-50
2022/08/27 11:40:28;;;;;;;4.18;3.83;;;25.40;99.60;;;;;;5033132;28;19909;-47
2022/08/27 11:43:03;;;;;;;8.20;4.25;;;25.50;99.60;;;;;;5032916;28;20397;-51
2022/08/27 11:45:37;;;;;;;4.32;3.83;;;25.50;99.40;;;;;;5034311;28;20026;-49
2022/08/27 11:48:25;;;;;;;5.25;4.15;;;25.50;98.90;;;;;;5033312;28;20226;-50
2022/08/27 11:51:06;;;;;;;6.82;4.60;;;25.40;99.60;;;;;;5033837;28;20512;-48
2022/08/27 11:53:35;;;;;;;8.35;4.32;;;25.50;99.10;;;;;;5033907;28;20080;-48
2022/08/27 11:56:14;;;;;;;5.75;4.72;;;25.50;98.70;;;;;;5034105;28;20021;-46
2022/08/27 11:58:41;;;;;;;5.80;4.80;;;25.50;98.80;;;;;;5034165;28;20635;-47
2022/08/27 12:01:28;;;;;;;8.98;4.20;;;25.50;99.00;;;;;;5045989;28;20064;-47
2022/08/27 12:04:23;;;;;;;5.55;4.10;;;25.50;99.10;;;;;;5052979;28;20033;-49
2022/08/27 12:07:01;;;;;;;5.88;4.43;;;25.50;99.10;;;;;;5053737;28;20055;-47
2022/08/27 12:09:27;;;;;;;6.43;4.53;;;25.50;98.80;;;;;;5053344;28;20112;-47
2022/08/27 12:12:04;;;;;;;5.88;4.72;;;25.40;98.70;;;;;;5034151;28;20112;-47
2022/08/27 12:14:48;;;;;;;7.35;4.72;;;25.50;98.70;;;;;;5053529;28;20431;-50
2022/08/27 12:17:46;;;;;;;5.85;4.22;;;25.50;98.90;;;;;;5053648;28;20025;-47
2022/08/27 12:20:34;;;;;;;9.23;4.63;;;25.50;99.10;;;;;;5053410;28;20058;-48
2022/08/27 12:23:39;;;;;;;5.95;4.22;;;25.60;99.10;;;;;;5052830;28;20033;-49
2022/08/27 12:26:30;;;;;;;8.88;5.32;;;25.80;98.80;;;;;;5053782;28;20108;-47
2022/08/27 12:29:18;;;;;;;9.38;4.40;;;25.90;99.00;;;;;;5035278;28;20361;-52
2022/08/27 12:31:47;;;;;;;8.68;4.75;;;25.80;99.20;;;;;;5013500;28;20595;-49
2022/08/27 12:34:15;;;;;;;5.85;4.22;;;25.80;99.00;;;;;;5052805;28;20047;-50
2022/08/27 12:36:41;;;;;;;4.72;3.70;;;25.80;98.90;;;;;;5052425;28;20030;-48
2022/08/27 12:39:15;;;;;;;7.22;4.18;;;25.90;98.90;;;;;;5053154;28;20407;-48
2022/08/27 12:41:46;;;;;;;4.35;3.95;;;25.90;99.00;;;;;;5052767;28;20064;-51
2022/08/27 12:44:15;;;;;;;4.47;4.07;;;26.00;98.90;;;;;;5052815;28;20024;-48
2022/08/27 12:46:57;;;;;;;8.18;4.35;;;26.10;98.70;;;;;;5052849;28;20033;-49
2022/08/27 12:49:30;;;;;;;5.15;4.70;;;26.10;98.50;;;;;;5052904;28;20049;-47
2022/08/27 12:52:01;;;;;;;5.10;4.60;;;26.00;98.50;;;;;;5052509;28;20481;-46
2022/08/27 12:54:56;;;;;;;9.43;4.07;;;25.90;98.70;;;;;;5052857;28;20055;-49
2022/08/27 12:57:41;;;;;;;4.97;4.25;;;26.00;98.70;;;;;;5050150;28;20076;-47
2022/08/27 13:00:14;;;;;;;5.47;4.38;;;26.10;98.50;;;;;;5052527;28;20036;-45
2022/08/27 13:03:02;;;;;;;7.07;4.13;;;26.00;98.40;;;;;;5051990;28;20133;-52
2022/08/27 13:05:39;;;;;;;8.18;4.60;;;25.90;98.70;;;;;;5052497;28;20040;-49
2022/08/27 13:08:27;;;;;;;8.30;4.40;;;25.90;98.50;;;;;;5052510;28;20032;-48
2022/08/27 13:10:52;;;;;;;4.70;4.30;;;25.90;98.20;;;;;;5052579;28;20083;-48